Time;durP1;ratioP1;P1;durP2;ratioP2;P2;SDS_P1;SDS_P2;PMS_P1;PMS_P2;Temp;Humidity;BMP_temperature;BMP_pressure;BME280_temperature;BME280_humidity;BME280_pressure;Samples;Min_cycle;Max_cycle;Signal;HPM_P1;HPM_P2
2022/11/23 00:01:19;;;;;;;5.75;2.67;;;;;;;13.60;66.21;98428.38;5033430;28;20035;-79
2022/11/23 00:03:47;;;;;;;5.72;2.83;;;;;;;13.39;66.39;98397.84;5051377;28;20057;-79
2022/11/23 00:06:13;;;;;;;8.85;3.15;;;;;;;13.34;66.37;98393.19;5051395;28;20025;-78
2022/11/23 00:08:39;;;;;;;4.57;2.65;;;;;;;13.12;66.31;98341.66;5051148;28;20051;-79
2022/11/23 00:11:05;;;;;;;5.55;2.40;;;;;;;13.52;66.35;98407.47;5051340;28;20105;-78
2022/11/23 00:13:31;;;;;;;5.82;2.45;;;;;;;13.39;66.35;98389.88;5051231;28;20036;-79
2022/11/23 00:15:56;;;;;;;5.95;3.33;;;;;;;13.14;66.49;98347.53;5051317;28;20417;-79
2022/11/23 00:18:22;;;;;;;8.13;2.60;;;;;;;12.83;66.13;98298.19;5051077;28;20502;-79
2022/11/23 00:20:47;;;;;;;7.72;3.83;;;;;;;13.62;66.48;98402.44;5051111;28;20472;-79
2022/11/23 00:23:13;;;;;;;6.20;3.30;;;;;;;13.42;66.46;98381.47;5051107;28;20032;-79
2022/11/23 00:25:38;;;;;;;6.72;3.55;;;;;;;13.46;66.82;98379.19;5051069;28;20571;-79
2022/11/23 00:28:03;;;;;;;9.48;3.88;;;;;;;13.37;67.28;98357.47;5051068;28;20033;-79
2022/11/23 00:30:29;;;;;;;8.20;3.47;;;;;;;13.24;67.54;98318.69;5033233;28;20024;-79
2022/11/23 00:32:54;;;;;;;8.60;3.50;;;;;;;12.91;67.87;98260.81;5052410;28;20032;-79
2022/11/23 00:35:21;;;;;;;6.60;3.05;;;;;;;13.69;67.75;98395.19;5055090;28;20028;-79
2022/11/23 00:37:46;;;;;;;7.80;3.50;;;;;;;12.79;68.00;98237.94;5054988;28;20052;-79
2022/11/23 00:40:12;;;;;;;9.43;4.03;;;;;;;13.36;68.48;98348.69;5054774;28;20057;-79
2022/11/23 00:42:37;;;;;;;4.90;3.03;;;;;;;12.95;68.40;98271.75;5054834;28;20467;-78
2022/11/23 00:45:03;;;;;;;6.78;2.97;;;;;;;13.10;68.54;98290.72;5054766;28;20041;-79
2022/11/23 00:47:28;;;;;;;5.95;3.15;;;;;;;13.01;68.70;98278.81;5054744;28;20039;-78
2022/11/23 00:49:54;;;;;;;4.55;3.20;;;;;;;13.01;68.65;98279.63;5054768;28;20021;-78
2022/11/23 00:52:19;;;;;;;9.02;3.53;;;;;;;12.95;68.88;98263.81;5054785;28;20037;-79
2022/11/23 00:54:44;;;;;;;5.38;3.10;;;;;;;13.26;68.88;98326.41;5054515;28;20406;-79
2022/11/23 00:57:10;;;;;;;7.10;3.10;;;;;;;13.31;69.05;98355.72;5054434;28;20029;-79
2022/11/23 00:59:35;;;;;;;7.30;3.55;;;;;;;13.38;68.84;98366.22;5036431;28;20079;-79
2022/11/23 01:02:01;;;;;;;7.38;3.10;;;;;;;13.39;68.94;98341.34;5054478;28;20122;-79
2022/11/23 01:04:27;;;;;;;6.53;3.35;;;;;;;12.88;69.10;98263.09;5054511;28;20029;-79
2022/11/23 01:06:56;;;;;;;6.47;3.67;;;;;;;13.42;68.93;98346.22;5036444;28;20051;-79
2022/11/23 01:09:25;;;;;;;7.78;3.20;;;;;;;13.61;69.12;98393.66;5053973;28;20045;-78
2022/11/23 01:11:52;;;;;;;10.07;3.40;;;;;;;13.18;69.09;98289.63;5054096;28;20561;-78
2022/11/23 01:14:17;;;;;;;6.35;3.60;;;;;;;12.72;69.26;98199.13;5036179;28;20020;-78
2022/11/23 01:16:43;;;;;;;5.63;3.60;;;;;;;13.14;69.07;98283.94;5054083;28;20112;-79
2022/11/23 01:19:17;;;;;;;4.78;3.25;;;;;;;13.42;69.39;98320.50;5054159;28;20045;-79
2022/11/23 01:21:43;;;;;;;6.13;3.13;;;;;;;13.29;69.42;98302.91;5054289;28;20024;-79
2022/11/23 01:24:16;;;;;;;7.00;3.40;;;;;;;13.07;69.28;98267.31;5054140;28;20102;-78
2022/11/23 01:26:43;;;;;;;6.88;3.58;;;;;;;13.66;69.46;98342.59;5036216;28;20466;-79
2022/11/23 01:29:08;;;;;;;4.72;2.95;;;;;;;13.19;69.47;98254.94;5053950;28;20409;-79
2022/11/23 01:31:34;;;;;;;6.32;2.97;;;;;;;13.10;69.41;98252.81;5054026;28;20025;-79
2022/11/23 01:34:02;;;;;;;5.65;3.08;;;;;;;13.09;69.57;98244.06;5053870;28;20040;-79
2022/11/23 01:36:29;;;;;;;5.28;3.30;;;;;;;13.66;69.69;98326.69;5053773;28;20104;-78
2022/11/23 01:38:56;;;;;;;4.55;3.13;;;;;;;13.65;70.15;98325.06;5053745;28;20033;-79
2022/11/23 01:41:24;;;;;;;4.75;3.40;;;;;;;13.66;69.84;98324.84;5035873;28;20027;-79
2022/11/23 01:43:50;;;;;;;5.32;3.63;;;;;;;13.09;70.06;98252.00;5053229;28;20107;-79
2022/11/23 01:46:16;;;;;;;6.03;3.58;;;;;;;13.48;70.15;98313.50;5035723;28;20108;-79
2022/11/23 01:48:53;;;;;;;7.80;3.63;;;;;;;13.66;70.34;98346.06;5035736;28;20509;-79
2022/11/23 01:51:24;;;;;;;6.82;3.90;;;;;;;13.67;70.17;98338.91;5053605;28;20032;-78
2022/11/23 01:53:52;;;;;;;;;;;;;;;13.54;71.18;98333.78;5053959;28;20413;-79
2022/11/23 01:56:22;;;;;;;6.63;4.10;;;;;;;13.54;70.25;98324.00;5053548;28;19909;-79
2022/11/23 01:58:52;;;;;;;9.30;4.85;;;;;;;13.44;70.48;98312.31;5053158;28;20513;-79
2022/11/23 02:01:18;;;;;;;8.15;4.95;;;;;;;13.24;70.81;98284.22;5035300;28;20028;-79
2022/11/23 02:03:46;;;;;;;8.57;4.68;;;;;;;13.63;70.67;98338.56;5052069;28;20485;-78
2022/11/23 02:06:20;;;;;;;6.53;4.95;;;;;;;13.45;70.47;98296.19;5053341;28;20028;-78
2022/11/23 02:08:47;;;;;;;7.10;5.30;;;;;;;13.66;70.86;98322.19;5052917;28;20049;-78
2022/11/23 02:11:13;;;;;;;9.25;6.25;;;;;;;13.19;70.52;98251.50;5053055;28;20025;-79
2022/11/23 02:13:41;;;;;;;11.23;7.43;;;;;;;13.41;70.62;98268.50;5053199;28;20024;-80
2022/11/23 02:16:07;;;;;;;10.95;7.00;;;;;;;13.18;70.92;98242.72;5053278;28;20036;-80
2022/11/23 02:18:35;;;;;;;9.13;6.63;;;;;;;13.67;70.62;98304.41;5052981;28;20029;-80
2022/11/23 02:21:02;;;;;;;8.43;6.63;;;;;;;12.91;70.89;98183.97;5051812;28;20025;-79
2022/11/23 02:23:47;;;;;;;8.23;6.32;;;;;;;13.26;71.08;98229.16;5052942;28;20025;-79
2022/11/23 02:26:29;;;;;;;9.68;5.68;;;;;;;13.66;71.18;98294.84;5052946;28;20068;-79
2022/11/23 02:29:13;;;;;;;9.55;5.68;;;;;;;13.66;71.19;98294.84;5052901;28;20078;-80
2022/11/23 02:31:38;;;;;;;11.55;6.70;;;;;;;13.07;71.35;98211.66;5034846;28;20029;-79
2022/11/23 02:34:04;;;;;;;9.07;5.75;;;;;;;12.19;71.19;98055.25;5052519;28;20040;-79
2022/11/23 02:36:35;;;;;;;9.25;5.90;;;;;;;13.63;71.59;98271.44;5052575;28;20126;-79
2022/11/23 02:39:09;;;;;;;8.88;5.10;;;;;;;13.60;71.72;98271.88;5052793;28;20035;-79
2022/11/23 02:41:47;;;;;;;9.80;6.10;;;;;;;12.98;71.86;98208.53;5034744;28;20029;-79
2022/11/23 02:44:31;;;;;;;8.30;5.35;;;;;;;13.57;71.71;98264.38;5052688;28;20059;-79
2022/11/23 02:46:57;;;;;;;8.38;5.18;;;;;;;13.57;71.75;98259.09;5052522;28;20417;-79
2022/11/23 02:49:23;;;;;;;7.60;5.18;;;;;;;13.57;71.69;98248.47;5052687;28;20508;-79
2022/11/23 02:51:48;;;;;;;7.30;4.97;;;;;;;13.49;71.83;98244.31;5052664;28;20060;-79
2022/11/23 02:54:14;;;;;;;7.82;4.60;;;;;;;13.21;72.01;98209.66;5034583;28;20063;-78
2022/11/23 02:56:40;;;;;;;8.30;5.15;;;;;;;13.35;72.02;98233.09;5050412;28;20079;-79
2022/11/23 02:59:05;;;;;;;10.77;4.88;;;;;;;13.18;72.05;98204.81;5052432;28;20033;-77
2022/11/23 03:01:31;;;;;;;8.23;6.47;;;;;;;12.96;72.44;98173.50;5052479;28;20036;-79
2022/11/23 03:03:56;;;;;;;10.63;7.32;;;;;;;13.09;72.67;98199.00;5034460;28;20090;-80
2022/11/23 03:06:22;;;;;;;10.45;7.43;;;;;;;12.84;72.68;98146.19;5052464;28;20029;-79
2022/11/23 03:08:47;;;;;;;11.13;7.05;;;;;;;13.17;72.86;98204.00;5052043;28;20433;-79
2022/11/23 03:11:12;;;;;;;10.55;5.72;;;;;;;12.68;73.18;98133.59;5051791;28;20029;-79
2022/11/23 03:13:38;;;;;;;7.13;4.38;;;;;;;13.52;73.38;98270.38;5052065;28;20029;-79
2022/11/23 03:16:04;;;;;;;6.55;4.22;;;;;;;12.69;73.63;98122.78;5052117;28;20033;-79
2022/11/23 03:18:29;;;;;;;7.40;4.03;;;;;;;13.09;74.17;98192.91;5051758;28;20035;-79
2022/11/23 03:20:54;;;;;;;10.52;4.38;;;;;;;13.34;74.13;98226.16;5051683;28;20124;-79
2022/11/23 03:23:20;;;;;;;8.48;4.18;;;;;;;13.15;74.40;98202.59;5034009;28;20021;-80
2022/11/23 03:25:54;;;;;;;9.98;4.35;;;;;;;12.66;74.31;98140.97;5034036;28;20116;-80
2022/11/23 03:28:20;;;;;;;10.45;4.82;;;;;;;13.13;74.75;98209.97;5034042;28;20421;-79
2022/11/23 03:30:45;;;;;;;8.73;4.65;;;;;;;13.49;74.88;98262.06;5051769;28;20021;-79
2022/11/23 03:33:10;;;;;;;7.70;4.75;;;;;;;12.79;75.05;98134.66;5052191;28;20025;-79
2022/11/23 03:35:37;;;;;;;9.80;4.30;;;;;;;13.15;75.47;98202.59;5052577;28;20048;-79
2022/11/23 03:38:02;;;;;;;9.82;3.92;;;;;;;12.79;75.44;98139.97;5052253;28;20020;-79
2022/11/23 03:40:28;;;;;;;12.00;4.88;;;;;;;12.97;75.53;98156.59;5051730;28;20112;-79
2022/11/23 03:42:53;;;;;;;6.88;3.80;;;;;;;13.47;75.35;98235.78;5033728;28;20032;-78
2022/11/23 03:45:18;;;;;;;9.52;4.50;;;;;;;13.09;75.48;98155.81;5051747;28;20082;-78
2022/11/23 03:47:44;;;;;;;10.27;4.30;;;;;;;13.42;75.91;98216.28;5051595;28;20021;-79
2022/11/23 03:50:09;;;;;;;11.40;5.07;;;;;;;12.46;76.02;98056.50;5051391;28;20052;-79
2022/11/23 03:52:35;;;;;;;7.47;4.25;;;;;;;13.02;76.10;98135.50;5033448;28;20023;-79
2022/11/23 03:55:00;;;;;;;7.35;4.47;;;;;;;13.01;76.01;98119.84;5051565;28;20033;-79
2022/11/23 03:57:25;;;;;;;9.73;4.93;;;;;;;13.05;76.15;98135.06;5051313;28;20032;-78
2022/11/23 03:59:51;;;;;;;10.38;4.82;;;;;;;13.09;76.50;98127.47;5033124;28;20406;-78
2022/11/23 04:02:16;;;;;;;6.35;4.03;;;;;;;13.19;76.45;98140.19;5051077;28;20032;-79
2022/11/23 04:04:42;;;;;;;6.30;4.32;;;;;;;13.35;76.02;98163.34;5050034;28;20504;-79
2022/11/23 04:07:07;;;;;;;12.75;6.57;;;;;;;13.06;76.23;98101.41;5051029;28;20021;-79
2022/11/23 04:09:32;;;;;;;10.32;5.78;;;;;;;13.14;76.29;98114.34;5050747;28;20044;-79
2022/11/23 04:11:58;;;;;;;8.77;5.30;;;;;;;13.24;76.73;98154.34;5051020;28;20021;-79
2022/11/23 04:14:23;;;;;;;8.45;5.45;;;;;;;13.36;76.80;98179.03;5051040;28;20028;-79
2022/11/23 04:16:49;;;;;;;10.43;5.55;;;;;;;12.99;76.76;98122.72;5049687;28;20048;-79
2022/11/23 04:19:14;;;;;;;7.50;5.00;;;;;;;12.99;76.98;98135.16;5050747;28;20021;-78
2022/11/23 04:21:39;;;;;;;9.85;5.97;;;;;;;12.92;76.78;98143.22;5050844;28;20096;-79
2022/11/23 04:24:05;;;;;;;9.43;5.03;;;;;;;13.24;77.13;98164.16;5051256;28;20413;-79
2022/11/23 04:26:30;;;;;;;12.35;5.10;;;;;;;13.05;77.13;98123.66;5051539;28;20025;-79
2022/11/23 04:28:56;;;;;;;6.40;4.20;;;;;;;12.95;77.23;98096.91;5051032;28;20078;-79
2022/11/23 04:31:21;;;;;;;11.85;5.88;;;;;;;13.16;77.33;98132.66;5049860;28;20025;-79
2022/11/23 04:33:47;;;;;;;7.75;4.78;;;;;;;13.15;77.00;98118.59;5033189;28;20497;-79
2022/11/23 04:36:12;;;;;;;9.77;4.95;;;;;;;12.97;77.38;98092.19;5051160;28;20386;-78
2022/11/23 04:38:37;;;;;;;8.88;5.30;;;;;;;12.93;77.30;98099.00;5050940;28;20032;-79
2022/11/23 04:41:03;;;;;;;9.23;4.88;;;;;;;12.72;77.17;98039.41;5050987;28;20028;-78
2022/11/23 04:43:30;;;;;;;7.50;5.15;;;;;;;12.93;77.45;98073.31;5051092;28;20032;-79
2022/11/23 04:45:56;;;;;;;7.82;4.72;;;;;;;13.33;77.42;98131.78;5049587;28;20100;-79
2022/11/23 04:48:21;;;;;;;8.75;5.13;;;;;;;13.69;77.58;98183.00;5051403;28;20104;-79
2022/11/23 04:50:47;;;;;;;8.23;4.93;;;;;;;12.06;77.14;97930.06;5052287;28;20020;-79
2022/11/23 04:53:13;;;;;;;7.60;4.57;;;;;;;13.62;77.47;98198.22;5050965;28;20040;-78
2022/11/23 04:55:38;;;;;;;7.25;4.15;;;;;;;13.56;77.22;98188.53;5050902;28;20024;-78
2022/11/23 04:58:03;;;;;;;6.97;4.47;;;;;;;13.16;77.18;98112.25;5050930;28;20456;-78
2022/11/23 05:00:29;;;;;;;8.05;4.03;;;;;;;13.54;77.23;98190.59;5050575;28;20569;-79
2022/11/23 05:02:57;;;;;;;8.48;3.92;;;;;;;13.26;77.16;98146.97;5050513;28;20029;-78
2022/11/23 05:05:22;;;;;;;7.38;4.35;;;;;;;13.41;76.93;98173.06;5050604;28;20020;-79
2022/11/23 05:07:48;;;;;;;9.10;4.85;;;;;;;13.53;77.20;98171.22;5050360;28;20056;-79
2022/11/23 05:10:13;;;;;;;13.55;5.45;;;;;;;13.02;77.10;98100.25;5050444;28;20017;-79
2022/11/23 05:12:39;;;;;;;10.02;5.15;;;;;;;13.62;77.08;98188.41;5050539;28;20498;-79
2022/11/23 05:15:05;;;;;;;9.82;5.93;;;;;;;12.93;77.34;98064.56;5050271;28;20490;-78
2022/11/23 05:17:30;;;;;;;13.48;5.65;;;;;;;12.99;77.09;98076.88;5050449;28;20056;-78
2022/11/23 05:19:55;;;;;;;11.15;6.50;;;;;;;13.42;77.22;98144.72;5053099;28;20497;-78
2022/11/23 05:22:21;;;;;;;11.65;6.43;;;;;;;13.09;77.34;98094.84;5054041;28;20025;-79
2022/11/23 05:24:46;;;;;;;14.13;7.32;;;;;;;13.30;77.64;98157.94;5054155;28;20025;-79
2022/11/23 05:27:12;;;;;;;13.82;7.55;;;;;;;13.30;77.54;98131.44;5054160;28;20032;-78
2022/11/23 05:29:37;;;;;;;12.02;7.15;;;;;;;13.33;77.61;98154.81;5054146;28;20028;-79
2022/11/23 05:32:03;;;;;;;11.55;6.38;;;;;;;12.88;77.56;98077.66;5053885;28;20485;-79
2022/11/23 05:34:28;;;;;;;11.63;6.78;;;;;;;13.32;77.57;98151.38;5035940;28;20025;-79
2022/11/23 05:36:54;;;;;;;10.38;6.53;;;;;;;13.30;77.32;98152.63;5053865;28;20512;-78
2022/11/23 05:39:19;;;;;;;10.88;6.18;;;;;;;12.98;77.64;98091.16;5053788;28;20025;-79
2022/11/23 05:41:45;;;;;;;11.30;5.72;;;;;;;13.39;77.99;98145.97;5052483;28;20067;-79
2022/11/23 05:44:10;;;;;;;10.63;5.50;;;;;;;13.75;77.89;98213.91;5053563;28;20131;-79
2022/11/23 05:46:35;;;;;;;15.77;7.32;;;;;;;13.13;77.94;98109.25;5053589;28;20022;-78
2022/11/23 05:49:01;;;;;;;9.82;5.03;;;;;;;13.47;78.16;98176.66;5053469;28;20513;-79
2022/11/23 05:51:26;;;;;;;8.45;5.30;;;;;;;13.87;77.94;98206.75;5053449;28;20032;-78
2022/11/23 05:53:52;;;;;;;9.45;5.53;;;;;;;13.21;78.22;98115.06;5053695;28;20096;-79
2022/11/23 05:56:17;;;;;;;11.55;7.50;;;;;;;13.54;77.96;98138.38;5053598;28;20504;-78
2022/11/23 05:58:43;;;;;;;11.85;6.65;;;;;;;13.91;77.83;98196.47;5055360;28;20028;-78
2022/11/23 06:01:08;;;;;;;9.68;5.75;;;;;;;13.24;77.61;98063.44;5073540;28;20024;-79
2022/11/23 06:03:33;;;;;;;11.90;6.90;;;;;;;13.79;77.90;98143.41;5073440;28;20024;-79
2022/11/23 06:05:59;;;;;;;15.30;8.48;;;;;;;13.67;78.05;98127.53;5073355;28;20024;-79
2022/11/23 06:08:24;;;;;;;11.43;6.32;;;;;;;13.74;77.74;98132.69;5080812;28;20119;-79
2022/11/23 06:10:51;;;;;;;14.15;8.88;;;;;;;13.81;77.46;98144.00;5092959;28;20044;-79
2022/11/23 06:13:16;;;;;;;12.93;7.55;;;;;;;13.53;77.18;98094.34;5093565;28;20031;-79
2022/11/23 06:15:42;;;;;;;22.70;16.48;;;;;;;14.24;77.19;98198.53;5084745;28;20032;-78
2022/11/23 06:18:08;;;;;;;32.53;23.65;;;;;;;14.30;76.95;98193.09;5055078;28;20032;-79
2022/11/23 06:20:33;;;;;;;21.92;14.15;;;;;;;13.58;76.66;98078.53;5079150;28;20063;-78
2022/11/23 06:22:59;;;;;;;20.30;13.15;;;;;;;14.11;76.69;98156.28;5075294;28;20056;-79
2022/11/23 06:25:24;;;;;;;16.58;9.70;;;;;;;14.40;76.73;98189.81;5090470;28;20382;-80
2022/11/23 06:27:56;;;;;;;17.45;9.90;;;;;;;14.39;77.01;98208.66;5055840;28;20029;-79
2022/11/23 06:30:22;;;;;;;16.25;12.45;;;;;;;13.85;77.05;98126.56;5054945;28;20103;-78
2022/11/23 06:32:48;;;;;;;41.53;33.47;;;;;;;14.46;76.73;98212.00;5072822;28;20052;-78
2022/11/23 06:35:14;;;;;;;26.08;21.27;;;;;;;13.66;76.55;98114.50;5075492;28;20468;-78
2022/11/23 06:37:39;;;;;;;25.60;18.15;;;;;;;14.23;76.48;98189.75;5075651;28;20499;-79
2022/11/23 06:40:05;;;;;;;31.58;19.90;;;;;;;13.32;76.86;98058.59;5065690;28;20028;-79
2022/11/23 06:42:30;;;;;;;23.80;17.02;;;;;;;13.92;77.27;98172.34;5057341;28;20052;-78
2022/11/23 06:44:56;;;;;;;22.25;15.77;;;;;;;14.17;76.61;98235.81;5054533;28;20017;-79
2022/11/23 06:47:21;;;;;;;16.83;12.82;;;;;;;14.28;75.78;98266.84;5072212;28;20029;-78
2022/11/23 06:49:47;;;;;;;16.27;13.52;;;;;;;13.91;75.54;98231.78;5055344;28;20079;-79
2022/11/23 06:52:12;;;;;;;15.48;13.38;;;;;;;13.99;75.22;98271.22;5054382;28;20518;-79
2022/11/23 06:54:38;;;;;;;18.15;13.32;;;;;;;14.08;75.17;98273.53;5068217;28;20030;-79
2022/11/23 06:57:06;;;;;;;17.52;14.20;;;;;;;13.55;74.87;98213.44;5092789;28;20057;-79
2022/11/23 06:59:32;;;;;;;21.50;15.00;;;;;;;13.78;74.96;98239.97;5063581;28;20035;-78
2022/11/23 07:01:57;;;;;;;17.80;14.15;;;;;;;13.65;75.03;98224.28;5073192;28;20408;-79
2022/11/23 07:04:23;;;;;;;20.38;14.27;;;;;;;12.95;74.84;98140.09;5072032;28;20032;-78
2022/11/23 07:06:48;;;;;;;21.83;18.15;;;;;;;13.33;75.03;98221.09;5082674;28;20106;-78
2022/11/23 07:09:13;;;;;;;23.80;18.10;;;;;;;13.39;74.55;98259.16;5077644;28;20418;-79
2022/11/23 07:11:39;;;;;;;24.80;18.20;;;;;;;13.09;74.67;98220.19;5077086;28;20081;-80
2022/11/23 07:14:04;;;;;;;24.10;17.67;;;;;;;13.19;74.27;98248.84;5082658;28;20048;-79
2022/11/23 07:16:30;;;;;;;24.98;17.30;;;;;;;13.15;74.36;98248.44;5079532;28;20032;-79
2022/11/23 07:18:56;;;;;;;24.40;16.92;;;;;;;13.35;74.22;98262.25;5082128;28;20024;-79
2022/11/23 07:21:21;;;;;;;24.23;17.35;;;;;;;13.12;73.99;98233.00;5060054;28;20057;-79
2022/11/23 07:23:47;;;;;;;22.65;17.38;;;;;;;12.87;73.46;98201.38;5061201;28;20104;-80
2022/11/23 07:26:12;;;;;;;24.98;16.90;;;;;;;13.41;73.76;98295.03;5082774;28;20021;-78
2022/11/23 07:28:38;;;;;;;23.60;15.90;;;;;;;13.42;73.12;98290.53;5086808;28;20028;-79
2022/11/23 07:31:03;;;;;;;25.45;17.20;;;;;;;13.30;73.33;98295.78;5079549;28;20013;-79
2022/11/23 07:33:29;;;;;;;24.27;16.88;;;;;;;13.02;73.02;98244.16;5068553;28;20035;-79
2022/11/23 07:35:54;;;;;;;24.70;17.50;;;;;;;13.21;73.11;98278.56;5070906;28;20028;-78
2022/11/23 07:38:20;;;;;;;22.70;16.90;;;;;;;13.31;72.89;98290.25;5079147;28;20032;-79
2022/11/23 07:40:48;;;;;;;21.63;16.05;;;;;;;12.76;72.62;98177.50;5061830;28;20116;-79
2022/11/23 07:43:13;;;;;;;25.75;17.52;;;;;;;12.87;72.76;98222.56;5069345;28;20036;-78
2022/11/23 07:45:39;;;;;;;27.20;19.02;;;;;;;12.82;73.14;98224.25;5059718;28;20093;-78
2022/11/23 07:48:09;;;;;;;26.77;18.73;;;;;;;12.82;72.96;98218.97;5067926;28;20105;-77
2022/11/23 07:50:36;;;;;;;26.23;19.02;;;;;;;12.90;73.40;98226.59;5070989;28;20029;-79
2022/11/23 07:53:03;;;;;;;27.17;20.15;;;;;;;13.25;73.19;98272.59;5067597;28;20108;-78
2022/11/23 07:55:30;;;;;;;25.23;18.83;;;;;;;13.05;73.14;98232.28;5050849;28;20025;-78
2022/11/23 07:57:56;;;;;;;25.30;17.75;;;;;;;13.32;73.27;98283.09;5068973;28;20029;-78
2022/11/23 08:00:23;;;;;;;27.48;17.73;;;;;;;13.17;73.04;98225.22;5069626;28;20035;-78
2022/11/23 08:02:48;;;;;;;22.73;15.38;;;;;;;13.10;73.03;98224.47;5074164;28;20020;-76
2022/11/23 08:05:15;;;;;;;28.05;16.90;;;;;;;13.00;72.89;98222.38;5062787;28;20045;-78
2022/11/23 08:07:40;;;;;;;25.58;17.05;;;;;;;13.25;72.62;98246.09;5069342;28;20062;-78
2022/11/23 08:10:08;;;;;;;27.63;16.45;;;;;;;13.51;72.56;98297.13;5048297;28;20060;-79
2022/11/23 08:12:33;;;;;;;21.90;16.98;;;;;;;12.96;72.50;98209.81;5067830;28;20032;-78
2022/11/23 08:14:59;;;;;;;22.70;17.38;;;;;;;12.82;72.40;98197.78;5052504;28;20047;-78
2022/11/23 08:17:24;;;;;;;22.65;16.38;;;;;;;12.80;72.29;98202.50;5070196;28;20421;-78
2022/11/23 08:19:50;;;;;;;23.95;16.60;;;;;;;13.08;72.25;98252.22;5064565;28;20024;-78
2022/11/23 08:22:15;;;;;;;25.13;17.02;;;;;;;13.05;72.38;98256.13;5070912;28;20432;-79
2022/11/23 08:24:41;;;;;;;21.30;16.58;;;;;;;13.22;72.47;98283.66;5058772;28;20409;-78
2022/11/23 08:27:07;;;;;;;25.30;18.40;;;;;;;13.29;72.32;98294.16;5055307;28;20036;-79
2022/11/23 08:29:32;;;;;;;27.67;19.38;;;;;;;13.05;72.22;98230.44;5070957;28;20028;-78
2022/11/23 08:31:57;;;;;;;24.92;17.70;;;;;;;12.95;72.35;98227.53;5070886;28;20032;-78
2022/11/23 08:34:23;;;;;;;22.23;17.05;;;;;;;13.09;72.40;98256.50;5052923;28;20040;-79
2022/11/23 08:36:48;;;;;;;28.38;19.75;;;;;;;13.49;72.17;98315.91;5068361;28;20024;-79
2022/11/23 08:39:15;;;;;;;23.70;17.95;;;;;;;13.47;72.41;98306.56;5060813;28;20119;-79
2022/11/23 08:41:41;;;;;;;20.63;16.25;;;;;;;13.07;72.67;98254.06;5067446;28;20028;-79
2022/11/23 08:44:10;;;;;;;20.50;16.15;;;;;;;12.95;72.62;98230.19;5063489;28;20051;-79
2022/11/23 08:46:36;;;;;;;20.58;15.57;;;;;;;12.08;72.52;98101.81;5063465;28;20089;-79
2022/11/23 08:49:02;;;;;;;19.40;14.68;;;;;;;13.34;72.56;98278.38;5047708;28;20552;-79
2022/11/23 08:51:28;;;;;;;22.55;16.00;;;;;;;12.97;72.54;98214.06;5049811;28;20029;-78
2022/11/23 08:53:53;;;;;;;23.05;16.30;;;;;;;13.28;72.35;98245.63;5067850;28;20427;-78
2022/11/23 08:56:19;;;;;;;21.40;17.42;;;;;;;13.57;72.21;98297.03;5058508;28;20093;-79
2022/11/23 08:58:44;;;;;;;25.73;19.77;;;;;;;13.51;72.33;98299.78;5078285;28;20036;-78
2022/11/23 09:01:12;;;;;;;22.48;17.60;;;;;;;13.48;72.26;98289.63;5070026;28;20029;-79
2022/11/23 09:03:38;;;;;;;25.30;17.25;;;;;;;13.07;72.48;98224.91;5048595;28;20052;-79
2022/11/23 09:06:04;;;;;;;21.52;16.35;;;;;;;13.52;72.33;98299.56;5049493;28;20105;-78
2022/11/23 09:08:29;;;;;;;26.80;20.20;;;;;;;12.44;72.23;98108.84;5080934;28;20131;-78
2022/11/23 09:11:13;;;;;;;26.80;19.80;;;;;;;13.66;72.43;98292.19;5056930;28;20081;-78
2022/11/23 09:13:39;;;;;;;18.98;15.13;;;;;;;13.27;72.08;98230.75;5068950;28;20051;-79
2022/11/23 09:16:06;;;;;;;19.02;16.10;;;;;;;13.71;71.87;98292.31;5071787;28;20493;-79
2022/11/23 09:18:32;;;;;;;24.25;19.25;;;;;;;13.74;71.76;98281.25;5073504;28;20028;-79
2022/11/23 09:21:00;;;;;;;19.50;15.38;;;;;;;13.77;71.60;98274.69;5078451;28;20032;-79
2022/11/23 09:23:26;;;;;;;19.45;15.88;;;;;;;13.26;71.38;98200.00;5054321;28;20037;-78
2022/11/23 09:25:52;;;;;;;21.30;16.00;;;;;;;13.73;70.82;98255.75;5057385;28;20044;-78
2022/11/23 09:28:23;;;;;;;22.30;17.23;;;;;;;13.40;70.93;98203.28;5064198;28;20116;-79
2022/11/23 09:30:48;;;;;;;21.02;16.52;;;;;;;13.51;70.89;98222.88;5061696;28;20032;-79
2022/11/23 09:33:14;;;;;;;20.13;16.00;;;;;;;13.06;70.65;98146.47;5068048;28;20029;-78
2022/11/23 09:35:40;;;;;;;21.30;16.67;;;;;;;13.83;70.65;98271.09;5072032;28;20039;-79
2022/11/23 09:38:05;;;;;;;21.15;16.33;;;;;;;13.21;70.24;98164.59;5074114;28;20024;-79
2022/11/23 09:40:36;;;;;;;25.05;17.60;;;;;;;13.90;70.55;98264.66;5047627;28;20398;-79
2022/11/23 09:43:58;;;;;;;25.65;20.00;;;;;;;13.46;70.50;98182.97;5057333;28;20120;-78
2022/11/23 09:46:40;;;;;;;21.20;17.35;;;;;;;13.54;70.72;98201.22;5051923;28;20040;-79
2022/11/23 09:49:11;;;;;;;21.00;15.20;;;;;;;13.97;70.46;98249.41;5066946;28;20056;-78
2022/11/23 09:51:38;;;;;;;19.42;15.77;;;;;;;13.64;70.32;98181.03;5074950;28;20031;-78
2022/11/23 09:54:21;;;;;;;22.38;16.88;;;;;;;14.11;70.37;98243.88;5055404;28;20030;-79
2022/11/23 09:56:50;;;;;;;20.58;16.63;;;;;;;13.35;70.36;98112.97;5064341;28;20063;-79
2022/11/23 09:59:39;;;;;;;20.98;14.93;;;;;;;14.12;70.07;98230.41;5076062;28;20072;-78
2022/11/23 10:02:09;;;;;;;22.80;15.35;;;;;;;14.17;70.05;98230.50;5075473;28;20031;-79
2022/11/23 10:04:35;;;;;;;17.70;14.95;;;;;;;14.12;70.11;98211.81;5075598;28;20016;-78
2022/11/23 10:07:21;;;;;;;22.00;17.63;;;;;;;13.61;70.15;98106.44;5055360;28;20077;-77
2022/11/23 10:10:02;;;;;;;20.58;15.75;;;;;;;14.28;70.32;98219.06;5067906;28;20116;-77
2022/11/23 10:12:53;;;;;;;20.00;15.55;;;;;;;14.34;70.05;98216.50;5069445;28;20490;-77
2022/11/23 10:15:23;;;;;;;19.65;14.85;;;;;;;14.37;69.85;98216.84;5065176;28;20521;-78
2022/11/23 10:18:10;;;;;;;20.40;15.68;;;;;;;14.09;69.54;98159.19;5069589;28;20028;-79
2022/11/23 10:20:52;;;;;;;19.75;14.10;;;;;;;14.45;69.43;98213.84;5066772;28;20108;-78
2022/11/23 10:23:26;;;;;;;18.90;14.27;;;;;;;14.50;69.26;98224.56;5066010;28;20032;-79
2022/11/23 10:25:52;;;;;;;18.15;14.23;;;;;;;14.00;69.03;98134.03;5069386;28;20475;-79
2022/11/23 10:28:20;;;;;;;22.48;15.52;;;;;;;14.59;69.20;98225.81;5053916;28;20107;-79
2022/11/23 10:31:00;;;;;;;19.73;14.90;;;;;;;14.11;68.97;98141.16;5051753;28;20024;-79
2022/11/23 10:33:30;;;;;;;19.58;16.13;;;;;;;14.28;68.91;98168.63;5067655;28;20040;-79
2022/11/23 10:35:56;;;;;;;23.80;18.65;;;;;;;14.83;68.74;98233.72;5050909;28;20137;-79
2022/11/23 10:38:25;;;;;;;19.10;14.85;;;;;;;14.59;68.28;98177.19;5070530;28;20036;-79
2022/11/23 10:41:02;;;;;;;25.02;17.13;;;;;;;13.31;68.23;97969.50;5070879;28;20040;-79
2022/11/23 10:43:36;;;;;;;20.58;17.00;;;;;;;14.57;68.54;98198.69;5057912;28;20047;-78
2022/11/23 10:46:36;;;;;;;19.20;15.32;;;;;;;14.78;68.02;98228.28;5070303;28;20390;-78
2022/11/23 10:49:20;;;;;;;20.45;15.85;;;;;;;14.79;68.61;98227.25;5066767;28;20032;-78
2022/11/23 10:51:50;;;;;;;19.55;15.52;;;;;;;14.83;68.75;98228.41;5059210;28;20040;-79
2022/11/23 10:54:21;;;;;;;22.20;17.50;;;;;;;14.57;68.17;98161.50;5052618;28;21129;-78
2022/11/23 10:56:48;;;;;;;19.77;16.80;;;;;;;14.51;68.40;98153.69;5047914;28;20107;-79
2022/11/23 10:59:37;;;;;;;18.73;14.13;;;;;;;14.63;67.97;98167.72;5047426;28;20111;-79
2022/11/23 11:02:20;;;;;;;19.35;15.27;;;;;;;14.93;68.18;98215.31;5043513;28;20128;-80
2022/11/23 11:04:47;;;;;;;22.05;17.08;;;;;;;14.93;68.02;98223.28;5054345;28;20405;-78
2022/11/23 11:07:29;;;;;;;19.02;15.45;;;;;;;14.90;68.26;98229.91;5063227;28;20028;-80
2022/11/23 11:09:57;;;;;;;17.20;15.32;;;;;;;14.50;68.25;98160.03;5052564;28;20044;-79
2022/11/23 11:12:24;;;;;;;16.80;14.65;;;;;;;14.99;68.16;98222.34;5057477;28;20036;-80
2022/11/23 11:15:01;;;;;;;17.98;14.95;;;;;;;15.00;68.38;98215.19;5067976;28;20025;-81
2022/11/23 11:17:32;;;;;;;21.30;16.45;;;;;;;15.10;67.87;98224.13;5064772;28;20028;-79
2022/11/23 11:19:58;;;;;;;18.73;14.60;;;;;;;14.89;67.95;98196.38;5066964;28;20024;-81
2022/11/23 11:22:32;;;;;;;15.00;12.85;;;;;;;15.09;67.85;98216.41;5069565;28;20509;-80
2022/11/23 11:24:58;;;;;;;19.58;14.88;;;;;;;14.59;67.64;98145.34;5071800;28;20036;-82
2022/11/23 11:27:27;;;;;;;19.17;14.52;;;;;;;14.12;67.62;98062.34;5064470;28;20024;-81